sensor_id;sensor_type;location;lat;lon;timestamp;P1;durP1;ratioP1;P2;durP2;ratioP2
63801;SDS011;49949;43.060;25.624;2023-05-07T00:00:27;16.05;;;11.02;;
63801;SDS011;49949;43.060;25.624;2023-05-07T00:02:53;10.13;;;6.28;;
63801;SDS011;49949;43.060;25.624;2023-05-07T00:05:19;9.43;;;6.00;;
63801;SDS011;49949;43.060;25.624;2023-05-07T00:07:44;7.70;;;6.25;;
63801;SDS011;49949;43.060;25.624;2023-05-07T00:10:10;8.68;;;6.38;;
63801;SDS011;49949;43.060;25.624;2023-05-07T00:12:37;8.35;;;6.07;;
63801;SDS011;49949;43.060;25.624;2023-05-07T00:15:03;15.82;;;6.90;;
63801;SDS011;49949;43.060;25.624;2023-05-07T00:17:29;8.80;;;6.32;;
63801;SDS011;49949;43.060;25.624;2023-05-07T00:19:55;6.55;;;5.88;;
63801;SDS011;49949;43.060;25.624;2023-05-07T00:22:21;11.10;;;6.05;;
63801;SDS011;49949;43.060;25.624;2023-05-07T00:24:46;11.35;;;6.40;;
63801;SDS011;49949;43.060;25.624;2023-05-07T00:27:12;9.32;;;5.55;;
63801;SDS011;49949;43.060;25.624;2023-05-07T00:29:38;10.75;;;6.03;;
63801;SDS011;49949;43.060;25.624;2023-05-07T00:32:04;8.25;;;6.00;;
63801;SDS011;49949;43.060;25.624;2023-05-07T00:34:30;10.45;;;5.90;;
63801;SDS011;49949;43.060;25.624;2023-05-07T00:36:56;7.28;;;5.70;;
63801;SDS011;49949;43.060;25.624;2023-05-07T00:39:21;13.10;;;6.70;;
63801;SDS011;49949;43.060;25.624;2023-05-07T00:41:47;11.23;;;5.90;;
63801;SDS011;49949;43.060;25.624;2023-05-07T00:44:13;9.88;;;6.40;;
63801;SDS011;49949;43.060;25.624;2023-05-07T00:46:39;12.07;;;6.07;;
63801;SDS011;49949;43.060;25.624;2023-05-07T00:49:05;11.20;;;5.70;;
63801;SDS011;49949;43.060;25.624;2023-05-07T00:51:31;13.40;;;6.90;;
63801;SDS011;49949;43.060;25.624;2023-05-07T00:54:00;17.10;;;7.93;;
63801;SDS011;49949;43.060;25.624;2023-05-07T00:56:27;13.40;;;7.97;;
63801;SDS011;49949;43.060;25.624;2023-05-07T00:58:53;13.55;;;7.70;;
63801;SDS011;49949;43.060;25.624;2023-05-07T01:01:19;19.08;;;7.72;;
63801;SDS011;49949;43.060;25.624;2023-05-07T01:03:45;17.52;;;6.90;;
63801;SDS011;49949;43.060;25.624;2023-05-07T01:06:11;16.08;;;7.57;;
63801;SDS011;49949;43.060;25.624;2023-05-07T01:08:38;18.58;;;7.43;;
63801;SDS011;49949;43.060;25.624;2023-05-07T01:11:06;20.15;;;9.32;;
63801;SDS011;49949;43.060;25.624;2023-05-07T01:13:33;20.00;;;10.57;;
63801;SDS011;49949;43.060;25.624;2023-05-07T01:16:00;21.50;;;9.27;;
63801;SDS011;49949;43.060;25.624;2023-05-07T01:18:26;20.30;;;9.18;;
63801;SDS011;49949;43.060;25.624;2023-05-07T01:20:52;17.77;;;9.05;;
63801;SDS011;49949;43.060;25.624;2023-05-07T01:23:19;28.88;;;9.88;;
63801;SDS011;49949;43.060;25.624;2023-05-07T01:25:50;25.88;;;9.07;;
63801;SDS011;49949;43.060;25.624;2023-05-07T01:28:18;27.55;;;9.25;;
63801;SDS011;49949;43.060;25.624;2023-05-07T01:30:44;28.00;;;9.60;;
63801;SDS011;49949;43.060;25.624;2023-05-07T01:33:15;24.50;;;9.53;;
63801;SDS011;49949;43.060;25.624;2023-05-07T01:35:47;26.50;;;8.43;;
63801;SDS011;49949;43.060;25.624;2023-05-07T01:38:16;24.17;;;9.57;;
63801;SDS011;49949;43.060;25.624;2023-05-07T01:40:43;25.58;;;9.20;;
63801;SDS011;49949;43.060;25.624;2023-05-07T01:43:09;33.42;;;9.40;;
63801;SDS011;49949;43.060;25.624;2023-05-07T01:45:36;29.30;;;10.13;;
63801;SDS011;49949;43.060;25.624;2023-05-07T01:48:02;24.95;;;11.00;;
63801;SDS011;49949;43.060;25.624;2023-05-07T01:50:29;18.45;;;9.90;;
63801;SDS011;49949;43.060;25.624;2023-05-07T01:52:56;29.98;;;10.32;;
63801;SDS011;49949;43.060;25.624;2023-05-07T01:55:22;31.35;;;10.00;;
63801;SDS011;49949;43.060;25.624;2023-05-07T01:57:48;24.52;;;9.90;;
63801;SDS011;49949;43.060;25.624;2023-05-07T02:00:14;29.60;;;10.25;;
63801;SDS011;49949;43.060;25.624;2023-05-07T02:02:40;37.85;;;9.05;;
63801;SDS011;49949;43.060;25.624;2023-05-07T02:05:06;35.08;;;10.48;;
63801;SDS011;49949;43.060;25.624;2023-05-07T02:07:32;34.42;;;11.45;;
63801;SDS011;49949;43.060;25.624;2023-05-07T02:09:57;49.72;;;9.50;;
63801;SDS011;49949;43.060;25.624;2023-05-07T02:12:23;45.03;;;11.27;;
63801;SDS011;49949;43.060;25.624;2023-05-07T02:14:49;45.08;;;10.85;;
63801;SDS011;49949;43.060;25.624;2023-05-07T02:17:15;46.05;;;11.15;;
63801;SDS011;49949;43.060;25.624;2023-05-07T02:19:40;46.25;;;12.35;;
63801;SDS011;49949;43.060;25.624;2023-05-07T02:22:06;73.90;;;13.70;;
63801;SDS011;49949;43.060;25.624;2023-05-07T02:24:34;52.25;;;14.15;;
63801;SDS011;49949;43.060;25.624;2023-05-07T02:27:00;70.05;;;11.65;;
63801;SDS011;49949;43.060;25.624;2023-05-07T02:29:27;60.88;;;14.27;;
63801;SDS011;49949;43.060;25.624;2023-05-07T02:31:52;61.13;;;15.25;;
63801;SDS011;49949;43.060;25.624;2023-05-07T02:34:18;46.78;;;14.55;;
63801;SDS011;49949;43.060;25.624;2023-05-07T02:36:44;60.95;;;13.00;;
63801;SDS011;49949;43.060;25.624;2023-05-07T02:39:11;69.72;;;15.43;;
63801;SDS011;49949;43.060;25.624;2023-05-07T02:41:37;77.10;;;15.63;;
63801;SDS011;49949;43.060;25.624;2023-05-07T02:44:03;142.63;;;17.92;;
63801;SDS011;49949;43.060;25.624;2023-05-07T02:46:29;194.35;;;22.83;;
63801;SDS011;49949;43.060;25.624;2023-05-07T02:48:55;118.40;;;16.45;;
63801;SDS011;49949;43.060;25.624;2023-05-07T02:51:21;101.53;;;14.98;;
63801;SDS011;49949;43.060;25.624;2023-05-07T02:53:47;96.00;;;17.05;;
63801;SDS011;49949;43.060;25.624;2023-05-07T02:56:13;88.53;;;14.40;;
63801;SDS011;49949;43.060;25.624;2023-05-07T02:58:39;84.57;;;15.90;;
63801;SDS011;49949;43.060;25.624;2023-05-07T03:01:05;66.95;;;13.20;;
63801;SDS011;49949;43.060;25.624;2023-05-07T03:03:31;56.47;;;14.32;;
63801;SDS011;49949;43.060;25.624;2023-05-07T03:05:57;56.47;;;14.32;;
63801;SDS011;49949;43.060;25.624;2023-05-07T03:08:22;60.05;;;17.08;;
63801;SDS011;49949;43.060;25.624;2023-05-07T03:10:48;91.75;;;17.75;;
63801;SDS011;49949;43.060;25.624;2023-05-07T03:13:14;72.45;;;24.90;;
63801;SDS011;49949;43.060;25.624;2023-05-07T03:15:40;72.95;;;17.63;;
63801;SDS011;49949;43.060;25.624;2023-05-07T03:18:06;70.88;;;18.30;;
63801;SDS011;49949;43.060;25.624;2023-05-07T03:20:31;63.10;;;15.13;;
63801;SDS011;49949;43.060;25.624;2023-05-07T03:22:57;62.13;;;14.70;;
63801;SDS011;49949;43.060;25.624;2023-05-07T03:25:23;42.42;;;14.68;;
63801;SDS011;49949;43.060;25.624;2023-05-07T03:27:48;42.50;;;13.90;;
63801;SDS011;49949;43.060;25.624;2023-05-07T03:30:14;32.97;;;12.85;;
63801;SDS011;49949;43.060;25.624;2023-05-07T03:32:40;45.00;;;12.27;;
63801;SDS011;49949;43.060;25.624;2023-05-07T03:35:05;37.15;;;13.32;;
63801;SDS011;49949;43.060;25.624;2023-05-07T03:37:32;38.33;;;11.82;;
63801;SDS011;49949;43.060;25.624;2023-05-07T03:39:58;32.45;;;11.23;;
63801;SDS011;49949;43.060;25.624;2023-05-07T03:42:23;27.50;;;10.77;;
63801;SDS011;49949;43.060;25.624;2023-05-07T03:44:50;29.83;;;10.05;;
63801;SDS011;49949;43.060;25.624;2023-05-07T03:47:16;27.35;;;10.73;;
63801;SDS011;49949;43.060;25.624;2023-05-07T03:49:41;38.50;;;11.95;;
63801;SDS011;49949;43.060;25.624;2023-05-07T03:52:07;36.50;;;11.45;;
63801;SDS011;49949;43.060;25.624;2023-05-07T03:54:33;38.00;;;11.75;;
63801;SDS011;49949;43.060;25.624;2023-05-07T03:56:58;40.97;;;11.02;;
63801;SDS011;49949;43.060;25.624;2023-05-07T03:59:24;39.00;;;11.55;;
63801;SDS011;49949;43.060;25.624;2023-05-07T04:01:50;58.58;;;13.13;;
63801;SDS011;49949;43.060;25.624;2023-05-07T04:04:16;49.83;;;13.20;;
63801;SDS011;49949;43.060;25.624;2023-05-07T04:06:41;59.05;;;14.23;;
63801;SDS011;49949;43.060;25.624;2023-05-07T04:09:07;67.43;;;13.68;;
63801;SDS011;49949;43.060;25.624;2023-05-07T04:11:33;110.32;;;16.40;;
63801;SDS011;49949;43.060;25.624;2023-05-07T04:14:00;108.30;;;17.00;;
63801;SDS011;49949;43.060;25.624;2023-05-07T04:16:26;72.85;;;15.10;;
63801;SDS011;49949;43.060;25.624;2023-05-07T04:18:52;140.00;;;20.55;;
63801;SDS011;49949;43.060;25.624;2023-05-07T04:21:18;56.95;;;17.70;;
63801;SDS011;49949;43.060;25.624;2023-05-07T04:23:48;71.28;;;16.80;;
63801;SDS011;49949;43.060;25.624;2023-05-07T04:26:14;72.40;;;18.23;;
63801;SDS011;49949;43.060;25.624;2023-05-07T04:28:41;66.45;;;17.13;;
63801;SDS011;49949;43.060;25.624;2023-05-07T04:31:07;65.25;;;18.40;;
63801;SDS011;49949;43.060;25.624;2023-05-07T04:33:33;54.83;;;16.55;;
63801;SDS011;49949;43.060;25.624;2023-05-07T04:36:02;49.95;;;16.25;;
63801;SDS011;49949;43.060;25.624;2023-05-07T04:38:32;76.97;;;18.83;;
63801;SDS011;49949;43.060;25.624;2023-05-07T04:41:09;56.05;;;18.25;;
63801;SDS011;49949;43.060;25.624;2023-05-07T04:43:34;53.28;;;15.93;;
63801;SDS011;49949;43.060;25.624;2023-05-07T04:46:00;43.13;;;16.40;;
63801;SDS011;49949;43.060;25.624;2023-05-07T04:48:26;58.15;;;16.10;;
63801;SDS011;49949;43.060;25.624;2023-05-07T04:50:53;51.83;;;16.58;;
63801;SDS011;49949;43.060;25.624;2023-05-07T04:53:19;44.38;;;15.35;;
63801;SDS011;49949;43.060;25.624;2023-05-07T04:55:45;57.75;;;16.50;;
63801;SDS011;49949;43.060;25.624;2023-05-07T04:58:11;54.90;;;17.27;;
63801;SDS011;49949;43.060;25.624;2023-05-07T05:00:37;62.13;;;18.40;;
63801;SDS011;49949;43.060;25.624;2023-05-07T05:03:04;68.50;;;20.63;;
63801;SDS011;49949;43.060;25.624;2023-05-07T05:05:32;83.68;;;23.10;;
63801;SDS011;49949;43.060;25.624;2023-05-07T05:07:57;141.60;;;39.08;;
63801;SDS011;49949;43.060;25.624;2023-05-07T05:10:23;134.60;;;41.35;;
63801;SDS011;49949;43.060;25.624;2023-05-07T05:12:49;180.60;;;52.47;;
63801;SDS011;49949;43.060;25.624;2023-05-07T05:15:15;126.45;;;39.45;;
63801;SDS011;49949;43.060;25.624;2023-05-07T05:17:41;92.03;;;30.95;;
63801;SDS011;49949;43.060;25.624;2023-05-07T05:20:07;76.63;;;27.48;;
63801;SDS011;49949;43.060;25.624;2023-05-07T05:22:34;79.63;;;28.00;;
63801;SDS011;49949;43.060;25.624;2023-05-07T05:25:00;99.68;;;28.08;;
63801;SDS011;49949;43.060;25.624;2023-05-07T05:27:26;100.20;;;38.42;;
63801;SDS011;49949;43.060;25.624;2023-05-07T05:29:51;78.63;;;27.85;;
63801;SDS011;49949;43.060;25.624;2023-05-07T05:32:17;42.17;;;15.35;;
63801;SDS011;49949;43.060;25.624;2023-05-07T05:34:43;36.50;;;14.93;;
63801;SDS011;49949;43.060;25.624;2023-05-07T05:37:09;42.50;;;16.23;;
63801;SDS011;49949;43.060;25.624;2023-05-07T05:39:35;54.80;;;21.35;;
63801;SDS011;49949;43.060;25.624;2023-05-07T05:42:01;58.92;;;23.23;;
63801;SDS011;49949;43.060;25.624;2023-05-07T05:44:27;43.70;;;20.80;;
63801;SDS011;49949;43.060;25.624;2023-05-07T05:46:53;58.58;;;18.63;;
63801;SDS011;49949;43.060;25.624;2023-05-07T05:49:24;58.50;;;23.65;;
63801;SDS011;49949;43.060;25.624;2023-05-07T05:51:50;62.00;;;25.77;;
63801;SDS011;49949;43.060;25.624;2023-05-07T05:54:15;63.22;;;23.98;;
63801;SDS011;49949;43.060;25.624;2023-05-07T05:56:41;40.72;;;19.08;;
63801;SDS011;49949;43.060;25.624;2023-05-07T05:59:07;43.30;;;18.85;;
63801;SDS011;49949;43.060;25.624;2023-05-07T06:01:33;39.38;;;15.13;;
63801;SDS011;49949;43.060;25.624;2023-05-07T06:03:59;43.03;;;16.75;;
63801;SDS011;49949;43.060;25.624;2023-05-07T06:06:24;34.28;;;15.90;;
63801;SDS011;49949;43.060;25.624;2023-05-07T06:08:50;38.80;;;15.60;;
63801;SDS011;49949;43.060;25.624;2023-05-07T06:11:16;36.83;;;16.52;;
63801;SDS011;49949;43.060;25.624;2023-05-07T06:13:42;43.97;;;16.58;;
63801;SDS011;49949;43.060;25.624;2023-05-07T06:16:07;40.55;;;15.95;;
63801;SDS011;49949;43.060;25.624;2023-05-07T06:18:33;30.27;;;13.77;;
63801;SDS011;49949;43.060;25.624;2023-05-07T06:21:01;27.15;;;14.05;;
63801;SDS011;49949;43.060;25.624;2023-05-07T06:23:27;25.17;;;13.65;;
63801;SDS011;49949;43.060;25.624;2023-05-07T06:25:52;34.72;;;12.35;;
63801;SDS011;49949;43.060;25.624;2023-05-07T06:28:18;23.88;;;12.10;;
63801;SDS011;49949;43.060;25.624;2023-05-07T06:30:44;21.88;;;10.68;;
63801;SDS011;49949;43.060;25.624;2023-05-07T06:33:10;18.63;;;9.80;;
63801;SDS011;49949;43.060;25.624;2023-05-07T06:35:35;19.08;;;9.70;;
63801;SDS011;49949;43.060;25.624;2023-05-07T06:38:01;14.43;;;8.77;;
63801;SDS011;49949;43.060;25.624;2023-05-07T06:40:27;11.77;;;5.72;;
63801;SDS011;49949;43.060;25.624;2023-05-07T06:42:52;7.57;;;5.05;;
63801;SDS011;49949;43.060;25.624;2023-05-07T06:45:19;8.80;;;5.13;;
63801;SDS011;49949;43.060;25.624;2023-05-07T06:47:45;25.63;;;6.00;;
63801;SDS011;49949;43.060;25.624;2023-05-07T06:50:10;15.52;;;6.28;;
63801;SDS011;49949;43.060;25.624;2023-05-07T06:52:36;13.48;;;5.78;;
63801;SDS011;49949;43.060;25.624;2023-05-07T06:55:02;15.18;;;5.72;;
63801;SDS011;49949;43.060;25.624;2023-05-07T06:57:28;17.90;;;5.47;;
63801;SDS011;49949;43.060;25.624;2023-05-07T06:59:54;8.88;;;4.25;;
63801;SDS011;49949;43.060;25.624;2023-05-07T07:02:19;11.82;;;4.68;;
63801;SDS011;49949;43.060;25.624;2023-05-07T07:04:45;5.53;;;4.15;;
63801;SDS011;49949;43.060;25.624;2023-05-07T07:07:11;5.35;;;4.10;;
63801;SDS011;49949;43.060;25.624;2023-05-07T07:09:36;7.43;;;4.45;;
63801;SDS011;49949;43.060;25.624;2023-05-07T07:12:02;9.82;;;4.25;;
63801;SDS011;49949;43.060;25.624;2023-05-07T07:14:28;11.90;;;3.58;;
63801;SDS011;49949;43.060;25.624;2023-05-07T07:16:54;13.75;;;3.55;;
63801;SDS011;49949;43.060;25.624;2023-05-07T07:19:19;11.95;;;3.80;;
63801;SDS011;49949;43.060;25.624;2023-05-07T07:21:45;12.18;;;5.97;;
63801;SDS011;49949;43.060;25.624;2023-05-07T07:24:12;15.32;;;5.80;;
63801;SDS011;49949;43.060;25.624;2023-05-07T07:26:38;12.60;;;5.30;;
63801;SDS011;49949;43.060;25.624;2023-05-07T07:29:05;6.63;;;4.10;;
63801;SDS011;49949;43.060;25.624;2023-05-07T07:31:31;8.52;;;3.60;;
63801;SDS011;49949;43.060;25.624;2023-05-07T07:33:57;6.88;;;3.58;;
63801;SDS011;49949;43.060;25.624;2023-05-07T07:36:23;8.68;;;3.70;;
63801;SDS011;49949;43.060;25.624;2023-05-07T07:38:48;5.28;;;2.88;;
63801;SDS011;49949;43.060;25.624;2023-05-07T07:41:14;7.63;;;3.53;;
63801;SDS011;49949;43.060;25.624;2023-05-07T07:43:40;10.65;;;3.67;;
63801;SDS011;49949;43.060;25.624;2023-05-07T07:46:05;10.75;;;2.95;;
63801;SDS011;49949;43.060;25.624;2023-05-07T07:48:31;4.20;;;1.58;;
63801;SDS011;49949;43.060;25.624;2023-05-07T07:50:57;2.25;;;1.75;;
63801;SDS011;49949;43.060;25.624;2023-05-07T07:53:22;2.03;;;1.40;;
63801;SDS011;49949;43.060;25.624;2023-05-07T07:55:48;1.73;;;1.30;;
63801;SDS011;49949;43.060;25.624;2023-05-07T07:58:14;2.20;;;1.20;;
63801;SDS011;49949;43.060;25.624;2023-05-07T08:00:39;3.55;;;1.48;;
63801;SDS011;49949;43.060;25.624;2023-05-07T08:03:05;5.50;;;1.35;;
63801;SDS011;49949;43.060;25.624;2023-05-07T08:05:33;4.75;;;1.48;;
63801;SDS011;49949;43.060;25.624;2023-05-07T08:07:59;1.58;;;1.20;;
63801;SDS011;49949;43.060;25.624;2023-05-07T08:10:25;5.18;;;1.40;;
63801;SDS011;49949;43.060;25.624;2023-05-07T08:12:50;4.38;;;1.40;;
63801;SDS011;49949;43.060;25.624;2023-05-07T08:15:16;4.50;;;1.13;;
63801;SDS011;49949;43.060;25.624;2023-05-07T08:17:42;1.42;;;1.02;;
63801;SDS011;49949;43.060;25.624;2023-05-07T08:20:08;1.65;;;0.85;;
63801;SDS011;49949;43.060;25.624;2023-05-07T08:22:35;8.07;;;0.90;;
63801;SDS011;49949;43.060;25.624;2023-05-07T08:25:01;2.10;;;0.90;;
63801;SDS011;49949;43.060;25.624;2023-05-07T08:27:27;0.90;;;0.70;;
63801;SDS011;49949;43.060;25.624;2023-05-07T08:29:53;0.77;;;0.63;;
63801;SDS011;49949;43.060;25.624;2023-05-07T08:32:19;0.65;;;0.60;;
63801;SDS011;49949;43.060;25.624;2023-05-07T08:34:45;1.10;;;0.80;;
63801;SDS011;49949;43.060;25.624;2023-05-07T08:37:11;2.22;;;0.68;;
63801;SDS011;49949;43.060;25.624;2023-05-07T08:39:37;8.18;;;1.00;;
63801;SDS011;49949;43.060;25.624;2023-05-07T08:42:03;0.63;;;0.60;;
63801;SDS011;49949;43.060;25.624;2023-05-07T08:44:33;0.90;;;0.52;;
63801;SDS011;49949;43.060;25.624;2023-05-07T08:47:02;0.80;;;0.80;;
63801;SDS011;49949;43.060;25.624;2023-05-07T08:49:28;1.48;;;0.80;;
63801;SDS011;49949;43.060;25.624;2023-05-07T08:51:54;2.17;;;0.90;;
63801;SDS011;49949;43.060;25.624;2023-05-07T08:54:20;1.75;;;0.80;;
63801;SDS011;49949;43.060;25.624;2023-05-07T08:56:46;1.02;;;0.80;;
63801;SDS011;49949;43.060;25.624;2023-05-07T08:59:12;3.40;;;0.65;;
63801;SDS011;49949;43.060;25.624;2023-05-07T09:01:38;0.73;;;0.70;;
63801;SDS011;49949;43.060;25.624;2023-05-07T09:04:04;3.50;;;0.68;;
63801;SDS011;49949;43.060;25.624;2023-05-07T09:06:31;5.57;;;1.02;;
63801;SDS011;49949;43.060;25.624;2023-05-07T09:08:58;1.55;;;0.70;;
63801;SDS011;49949;43.060;25.624;2023-05-07T09:11:26;3.15;;;0.90;;
63801;SDS011;49949;43.060;25.624;2023-05-07T09:13:53;4.35;;;0.93;;
63801;SDS011;49949;43.060;25.624;2023-05-07T09:16:21;4.38;;;1.10;;
63801;SDS011;49949;43.060;25.624;2023-05-07T09:18:48;3.42;;;1.00;;
63801;SDS011;49949;43.060;25.624;2023-05-07T09:21:17;0.73;;;0.73;;
63801;SDS011;49949;43.060;25.624;2023-05-07T09:23:43;2.55;;;1.02;;
63801;SDS011;49949;43.060;25.624;2023-05-07T09:26:09;2.70;;;1.10;;
63801;SDS011;49949;43.060;25.624;2023-05-07T09:28:40;4.53;;;0.90;;
63801;SDS011;49949;43.060;25.624;2023-05-07T09:31:06;3.20;;;1.85;;
63801;SDS011;49949;43.060;25.624;2023-05-07T09:33:33;3.72;;;1.20;;
63801;SDS011;49949;43.060;25.624;2023-05-07T09:36:02;3.95;;;1.00;;
63801;SDS011;49949;43.060;25.624;2023-05-07T09:38:28;4.80;;;1.08;;
63801;SDS011;49949;43.060;25.624;2023-05-07T09:41:08;2.17;;;1.20;;
63801;SDS011;49949;43.060;25.624;2023-05-07T09:43:35;1.90;;;1.10;;
63801;SDS011;49949;43.060;25.624;2023-05-07T09:46:03;4.43;;;1.10;;
63801;SDS011;49949;43.060;25.624;2023-05-07T09:48:39;2.63;;;1.17;;
63801;SDS011;49949;43.060;25.624;2023-05-07T09:51:12;2.10;;;1.10;;
63801;SDS011;49949;43.060;25.624;2023-05-07T09:53:45;3.85;;;1.00;;
63801;SDS011;49949;43.060;25.624;2023-05-07T09:56:13;7.70;;;0.98;;
63801;SDS011;49949;43.060;25.624;2023-05-07T09:58:42;1.55;;;1.25;;
63801;SDS011;49949;43.060;25.624;2023-05-07T10:01:10;2.75;;;1.23;;
63801;SDS011;49949;43.060;25.624;2023-05-07T10:03:37;2.00;;;1.10;;
63801;SDS011;49949;43.060;25.624;2023-05-07T10:06:06;1.73;;;1.15;;
63801;SDS011;49949;43.060;25.624;2023-05-07T10:08:33;2.72;;;1.10;;
63801;SDS011;49949;43.060;25.624;2023-05-07T10:11:00;3.55;;;1.10;;
63801;SDS011;49949;43.060;25.624;2023-05-07T10:13:28;5.22;;;1.52;;
63801;SDS011;49949;43.060;25.624;2023-05-07T10:15:54;5.25;;;1.27;;
63801;SDS011;49949;43.060;25.624;2023-05-07T10:18:21;6.22;;;1.30;;
63801;SDS011;49949;43.060;25.624;2023-05-07T10:20:48;3.63;;;1.27;;
63801;SDS011;49949;43.060;25.624;2023-05-07T10:23:19;4.40;;;1.38;;
63801;SDS011;49949;43.060;25.624;2023-05-07T10:25:49;4.82;;;1.13;;
63801;SDS011;49949;43.060;25.624;2023-05-07T10:28:15;2.95;;;1.33;;
63801;SDS011;49949;43.060;25.624;2023-05-07T10:30:48;2.63;;;1.35;;
63801;SDS011;49949;43.060;25.624;2023-05-07T10:33:22;4.97;;;1.30;;
63801;SDS011;49949;43.060;25.624;2023-05-07T10:35:50;1.25;;;1.00;;
63801;SDS011;49949;43.060;25.624;2023-05-07T10:38:21;5.60;;;1.98;;
63801;SDS011;49949;43.060;25.624;2023-05-07T10:40:47;2.67;;;1.10;;
63801;SDS011;49949;43.060;25.624;2023-05-07T10:43:12;2.17;;;1.33;;
63801;SDS011;49949;43.060;25.624;2023-05-07T10:45:38;4.75;;;1.08;;
63801;SDS011;49949;43.060;25.624;2023-05-07T10:48:07;3.95;;;1.50;;
63801;SDS011;49949;43.060;25.624;2023-05-07T10:50:38;6.63;;;1.10;;
63801;SDS011;49949;43.060;25.624;2023-05-07T10:55:43;3.58;;;1.55;;
63801;SDS011;49949;43.060;25.624;2023-05-07T10:58:24;1.30;;;1.20;;
63801;SDS011;49949;43.060;25.624;2023-05-07T11:03:26;5.88;;;1.40;;
63801;SDS011;49949;43.060;25.624;2023-05-07T11:11:19;3.38;;;1.23;;
63801;SDS011;49949;43.060;25.624;2023-05-07T11:14:05;4.95;;;1.20;;
63801;SDS011;49949;43.060;25.624;2023-05-07T11:16:30;4.45;;;1.55;;
63801;SDS011;49949;43.060;25.624;2023-05-07T11:18:58;3.53;;;1.30;;
63801;SDS011;49949;43.060;25.624;2023-05-07T11:24:06;2.80;;;1.17;;
63801;SDS011;49949;43.060;25.624;2023-05-07T11:26:54;2.55;;;1.30;;
63801;SDS011;49949;43.060;25.624;2023-05-07T11:29:20;6.35;;;1.40;;
63801;SDS011;49949;43.060;25.624;2023-05-07T11:31:49;2.53;;;1.25;;
63801;SDS011;49949;43.060;25.624;2023-05-07T11:34:22;3.95;;;1.10;;
63801;SDS011;49949;43.060;25.624;2023-05-07T11:36:50;3.35;;;1.42;;
63801;SDS011;49949;43.060;25.624;2023-05-07T11:39:23;2.03;;;1.20;;
63801;SDS011;49949;43.060;25.624;2023-05-07T11:42:00;5.63;;;1.92;;
63801;SDS011;49949;43.060;25.624;2023-05-07T11:47:26;5.30;;;1.45;;
63801;SDS011;49949;43.060;25.624;2023-05-07T11:49:54;3.53;;;1.15;;
63801;SDS011;49949;43.060;25.624;2023-05-07T11:52:21;4.38;;;1.20;;
63801;SDS011;49949;43.060;25.624;2023-05-07T11:54:55;3.83;;;1.30;;
63801;SDS011;49949;43.060;25.624;2023-05-07T11:57:22;3.22;;;1.25;;
63801;SDS011;49949;43.060;25.624;2023-05-07T11:59:52;3.13;;;0.82;;
63801;SDS011;49949;43.060;25.624;2023-05-07T12:02:18;2.97;;;1.15;;
63801;SDS011;49949;43.060;25.624;2023-05-07T12:04:44;2.03;;;0.88;;
63801;SDS011;49949;43.060;25.624;2023-05-07T12:07:13;3.33;;;1.40;;
63801;SDS011;49949;43.060;25.624;2023-05-07T12:09:42;4.10;;;1.02;;
63801;SDS011;49949;43.060;25.624;2023-05-07T12:12:09;2.00;;;1.27;;
63801;SDS011;49949;43.060;25.624;2023-05-07T12:14:41;4.30;;;1.20;;
63801;SDS011;49949;43.060;25.624;2023-05-07T12:17:08;2.17;;;1.30;;
63801;SDS011;49949;43.060;25.624;2023-05-07T12:19:35;5.57;;;1.20;;
63801;SDS011;49949;43.060;25.624;2023-05-07T12:22:04;3.50;;;1.42;;
63801;SDS011;49949;43.060;25.624;2023-05-07T12:27:11;6.03;;;1.40;;
63801;SDS011;49949;43.060;25.624;2023-05-07T12:29:38;5.20;;;1.30;;
63801;SDS011;49949;43.060;25.624;2023-05-07T12:32:06;2.13;;;1.10;;
63801;SDS011;49949;43.060;25.624;2023-05-07T12:34:32;4.97;;;1.45;;
63801;SDS011;49949;43.060;25.624;2023-05-07T12:36:57;5.22;;;1.33;;
63801;SDS011;49949;43.060;25.624;2023-05-07T12:39:28;4.45;;;1.35;;
63801;SDS011;49949;43.060;25.624;2023-05-07T12:41:54;2.90;;;1.48;;
63801;SDS011;49949;43.060;25.624;2023-05-07T12:44:22;1.50;;;1.08;;
63801;SDS011;49949;43.060;25.624;2023-05-07T12:46:48;1.33;;;1.20;;
63801;SDS011;49949;43.060;25.624;2023-05-07T12:49:14;4.05;;;1.40;;
63801;SDS011;49949;43.060;25.624;2023-05-07T12:51:40;4.65;;;2.42;;
63801;SDS011;49949;43.060;25.624;2023-05-07T12:54:06;2.10;;;1.50;;
63801;SDS011;49949;43.060;25.624;2023-05-07T12:56:31;1.67;;;1.30;;
63801;SDS011;49949;43.060;25.624;2023-05-07T12:59:00;2.60;;;1.00;;
63801;SDS011;49949;43.060;25.624;2023-05-07T13:01:29;2.58;;;1.42;;
63801;SDS011;49949;43.060;25.624;2023-05-07T13:03:58;3.20;;;1.23;;
63801;SDS011;49949;43.060;25.624;2023-05-07T13:06:27;2.38;;;1.10;;
63801;SDS011;49949;43.060;25.624;2023-05-07T13:08:53;1.48;;;1.13;;
63801;SDS011;49949;43.060;25.624;2023-05-07T13:11:19;2.40;;;1.20;;
63801;SDS011;49949;43.060;25.624;2023-05-07T13:13:45;1.30;;;1.23;;
63801;SDS011;49949;43.060;25.624;2023-05-07T13:16:11;1.55;;;1.40;;
63801;SDS011;49949;43.060;25.624;2023-05-07T13:18:38;1.27;;;1.13;;
63801;SDS011;49949;43.060;25.624;2023-05-07T13:21:04;2.15;;;1.15;;
63801;SDS011;49949;43.060;25.624;2023-05-07T13:23:30;12.90;;;1.42;;
63801;SDS011;49949;43.060;25.624;2023-05-07T13:25:55;7.43;;;1.15;;
63801;SDS011;49949;43.060;25.624;2023-05-07T13:28:23;5.35;;;1.00;;
63801;SDS011;49949;43.060;25.624;2023-05-07T13:30:49;6.10;;;1.10;;
63801;SDS011;49949;43.060;25.624;2023-05-07T13:33:17;1.70;;;1.60;;
63801;SDS011;49949;43.060;25.624;2023-05-07T13:35:43;2.65;;;1.25;;
63801;SDS011;49949;43.060;25.624;2023-05-07T13:38:09;4.15;;;1.20;;
63801;SDS011;49949;43.060;25.624;2023-05-07T13:40:34;2.35;;;1.20;;
63801;SDS011;49949;43.060;25.624;2023-05-07T13:43:00;2.45;;;1.23;;
63801;SDS011;49949;43.060;25.624;2023-05-07T13:45:29;3.55;;;1.10;;
63801;SDS011;49949;43.060;25.624;2023-05-07T13:47:55;2.75;;;1.33;;
63801;SDS011;49949;43.060;25.624;2023-05-07T13:50:21;2.38;;;1.50;;
63801;SDS011;49949;43.060;25.624;2023-05-07T13:52:47;11.70;;;1.95;;
63801;SDS011;49949;43.060;25.624;2023-05-07T13:55:18;1.63;;;1.40;;
63801;SDS011;49949;43.060;25.624;2023-05-07T13:57:45;2.53;;;1.48;;
63801;SDS011;49949;43.060;25.624;2023-05-07T14:00:12;1.15;;;1.13;;
63801;SDS011;49949;43.060;25.624;2023-05-07T14:02:38;6.75;;;2.08;;
63801;SDS011;49949;43.060;25.624;2023-05-07T14:05:04;4.35;;;1.20;;
63801;SDS011;49949;43.060;25.624;2023-05-07T14:07:30;3.58;;;1.00;;
63801;SDS011;49949;43.060;25.624;2023-05-07T14:09:56;1.98;;;1.25;;
63801;SDS011;49949;43.060;25.624;2023-05-07T14:12:22;1.98;;;1.00;;
63801;SDS011;49949;43.060;25.624;2023-05-07T14:14:48;2.60;;;1.35;;
63801;SDS011;49949;43.060;25.624;2023-05-07T14:17:15;1.50;;;1.10;;
63801;SDS011;49949;43.060;25.624;2023-05-07T14:19:43;1.77;;;1.30;;
63801;SDS011;49949;43.060;25.624;2023-05-07T14:22:09;3.75;;;1.23;;
63801;SDS011;49949;43.060;25.624;2023-05-07T14:24:35;8.45;;;1.73;;
63801;SDS011;49949;43.060;25.624;2023-05-07T14:27:01;2.67;;;1.10;;
63801;SDS011;49949;43.060;25.624;2023-05-07T14:29:27;2.78;;;1.30;;
63801;SDS011;49949;43.060;25.624;2023-05-07T14:31:53;2.90;;;1.60;;
63801;SDS011;49949;43.060;25.624;2023-05-07T14:34:18;2.50;;;1.40;;
63801;SDS011;49949;43.060;25.624;2023-05-07T14:36:44;8.68;;;1.90;;
63801;SDS011;49949;43.060;25.624;2023-05-07T14:39:10;1.05;;;1.02;;